createdAt,value
2019-05-19T00:00:55.431Z,13.03
2019-05-19T00:05:58.772Z,12.93
2019-05-19T00:11:02.063Z,11.67
2019-05-19T00:16:05.617Z,10.97
2019-05-19T00:21:09.138Z,11.03
2019-05-19T00:26:12.430Z,11.33
2019-05-19T00:31:15.712Z,11.57
2019-05-19T00:36:19.744Z,11.70
2019-05-19T00:41:23.241Z,11.77
2019-05-19T00:46:26.781Z,11.97
2019-05-19T00:51:30.310Z,11.63
2019-05-19T00:56:33.653Z,11.83
2019-05-19T01:01:37.170Z,13.20
2019-05-19T01:06:40.454Z,12.80
2019-05-19T01:11:43.736Z,13.07
2019-05-19T01:16:47.276Z,14.53
2019-05-19T01:21:51.099Z,14.60
2019-05-19T01:26:54.611Z,14.73
2019-05-19T01:31:57.893Z,14.90
2019-05-19T01:37:01.176Z,16.23
2019-05-19T01:42:04.469Z,15.87
2019-05-19T01:47:07.998Z,16.37
2019-05-19T01:52:11.294Z,16.27
2019-05-19T01:57:14.583Z,16.33
2019-05-19T02:02:18.087Z,16.60
2019-05-19T02:07:21.519Z,15.03
2019-05-19T02:12:24.976Z,17.67
2019-05-19T02:17:28.501Z,14.43
2019-05-19T02:22:31.794Z,15.90
2019-05-19T02:27:35.094Z,15.07
2019-05-19T02:32:38.619Z,15.83
2019-05-19T02:37:41.915Z,15.93
2019-05-19T02:42:45.577Z,15.63
2019-05-19T02:47:50.536Z,16.00
2019-05-19T02:52:54.438Z,14.57
2019-05-19T02:57:58.534Z,15.60
2019-05-19T03:03:01.825Z,15.43
2019-05-19T03:08:05.425Z,15.00
2019-05-19T03:13:08.701Z,17.27
2019-05-19T03:18:11.981Z,16.23
2019-05-19T03:23:15.267Z,14.93
2019-05-19T03:28:18.542Z,16.27
2019-05-19T03:33:23.774Z,17.10
2019-05-19T03:38:27.045Z,19.47
2019-05-19T03:43:30.330Z,18.77
2019-05-19T03:48:33.626Z,16.70
2019-05-19T03:53:37.149Z,19.67
2019-05-19T03:58:40.713Z,19.10
2019-05-19T04:03:44.212Z,18.23
2019-05-19T04:08:47.486Z,16.60
2019-05-19T04:13:50.776Z,17.83
2019-05-19T04:18:54.051Z,18.63
2019-05-19T04:23:57.574Z,18.50
2019-05-19T04:29:00.853Z,18.93
2019-05-19T04:34:04.140Z,17.80
2019-05-19T04:39:07.514Z,17.50
2019-05-19T04:44:10.786Z,18.40
2019-05-19T04:49:14.315Z,19.40
2019-05-19T04:54:17.848Z,20.80
2019-05-19T04:59:21.130Z,19.17
2019-05-19T05:04:29.045Z,19.00
2019-05-19T05:09:29.442Z,20.40
2019-05-19T05:14:32.734Z,18.97
2019-05-19T05:19:36.270Z,17.97
2019-05-19T05:24:39.799Z,20.07
2019-05-19T05:29:43.341Z,20.27
2019-05-19T05:34:46.629Z,19.33
2019-05-19T05:39:50.218Z,20.30
2019-05-19T05:44:53.765Z,20.80
2019-05-19T05:49:57.083Z,21.87
2019-05-19T05:55:00.363Z,23.63
2019-05-19T06:00:08.845Z,23.37
2019-05-19T06:05:12.449Z,22.30
2019-05-19T06:10:16.184Z,24.83
2019-05-19T06:15:20.801Z,26.50
2019-05-19T06:20:24.098Z,27.93
2019-05-19T06:25:27.483Z,26.73
2019-05-19T06:30:31.042Z,24.73
2019-05-19T06:35:34.618Z,25.13
2019-05-19T06:40:38.222Z,20.27
2019-05-19T06:45:41.733Z,23.23
2019-05-19T06:50:45.020Z,24.57
2019-05-19T06:55:49.015Z,27.67
2019-05-19T07:00:52.297Z,28.60
2019-05-19T07:05:55.588Z,30.63
2019-05-19T07:10:59.116Z,26.20
2019-05-19T07:16:02.507Z,28.57
2019-05-19T07:21:05.792Z,24.50
2019-05-19T07:26:09.332Z,24.70
2019-05-19T07:31:12.919Z,23.07
2019-05-19T07:36:16.468Z,25.57
2019-05-19T07:41:19.775Z,21.80
2019-05-19T07:46:23.074Z,20.90
2019-05-19T07:51:32.321Z,19.80
2019-05-19T07:56:35.602Z,18.73
2019-05-19T08:01:39.150Z,16.27
2019-05-19T08:06:42.458Z,14.30
2019-05-19T08:11:45.745Z,11.07
2019-05-19T08:16:49.053Z,11.67
2019-05-19T08:21:52.581Z,10.83
2019-05-19T08:26:56.096Z,9.87
2019-05-19T08:31:59.633Z,9.70
2019-05-19T08:37:02.948Z,9.70
2019-05-19T08:42:06.447Z,9.33
2019-05-19T08:47:09.991Z,11.23
2019-05-19T08:52:13.509Z,9.93
2019-05-19T08:57:17.079Z,9.97
2019-05-19T09:02:20.446Z,10.60
2019-05-19T09:07:23.956Z,7.63
2019-05-19T09:12:30.650Z,7.73
2019-05-19T09:17:34.212Z,8.00
2019-05-19T09:22:37.541Z,7.07
2019-05-19T09:27:41.156Z,7.23
2019-05-19T09:32:44.458Z,8.27
2019-05-19T09:37:47.987Z,8.53
2019-05-19T09:42:51.495Z,9.63
2019-05-19T09:47:54.781Z,7.93
2019-05-19T09:52:58.307Z,9.77
2019-05-19T09:58:01.658Z,8.10
2019-05-19T10:03:05.082Z,7.00
2019-05-19T10:08:08.438Z,8.37
2019-05-19T10:13:11.958Z,8.37
2019-05-19T10:18:15.643Z,7.60
2019-05-19T10:23:19.257Z,10.47
2019-05-19T10:28:22.592Z,11.60
2019-05-19T10:33:25.914Z,11.57
2019-05-19T10:38:31.081Z,12.20
2019-05-19T10:43:34.359Z,11.00
2019-05-19T10:48:37.984Z,13.03
2019-05-19T10:53:41.452Z,12.97
2019-05-19T10:58:44.995Z,11.77
2019-05-19T11:03:48.597Z,9.17
2019-05-19T11:08:51.946Z,7.60
2019-05-19T11:13:55.243Z,10.93
2019-05-19T11:18:58.527Z,10.00
2019-05-19T11:24:01.823Z,10.37
2019-05-19T11:29:05.398Z,14.03
2019-05-19T11:34:08.974Z,10.13
2019-05-19T11:39:12.503Z,10.63
2019-05-19T11:44:16.181Z,8.83
2019-05-19T11:49:19.709Z,10.83
2019-05-19T11:54:23.275Z,10.57
2019-05-19T11:59:26.554Z,10.70
2019-05-19T12:04:31.208Z,8.80
2019-05-19T12:09:34.641Z,8.17
2019-05-19T12:14:39.819Z,7.83
2019-05-19T12:19:43.109Z,8.90
2019-05-19T12:24:46.390Z,8.10
2019-05-19T12:29:49.668Z,9.07
2019-05-19T12:34:53.238Z,8.23
2019-05-19T12:39:56.511Z,7.80
2019-05-19T12:44:59.796Z,6.67
2019-05-19T12:50:03.327Z,7.30
2019-05-19T12:55:07.145Z,6.73
2019-05-19T13:00:10.962Z,7.03
2019-05-19T13:05:14.245Z,8.53
2019-05-19T13:10:25.119Z,8.73
2019-05-19T13:15:34.713Z,11.03
2019-05-19T13:20:39.251Z,7.67
2019-05-19T13:25:42.785Z,5.87
2019-05-19T13:30:48.126Z,7.57
2019-05-19T13:35:51.925Z,5.00
2019-05-19T13:40:55.484Z,8.73
2019-05-19T13:46:01.030Z,8.53
2019-05-19T13:51:04.531Z,6.07
2019-05-19T13:56:07.806Z,7.40
2019-05-19T14:01:27.285Z,5.37
2019-05-19T14:06:20.626Z,4.90
2019-05-19T14:11:24.138Z,5.73
2019-05-19T14:16:27.500Z,6.63
2019-05-19T14:21:31.073Z,7.93
2019-05-19T14:26:34.609Z,4.70
2019-05-19T14:37:17.470Z,9.67
2019-05-19T14:42:38.526Z,5.70
2019-05-19T14:47:43.042Z,7.70
2019-05-19T14:52:51.491Z,7.07
2019-05-19T14:58:01.107Z,6.77
2019-05-19T15:03:07.300Z,5.10
2019-05-19T15:08:11.011Z,6.37
2019-05-19T15:13:14.520Z,5.40
2019-05-19T15:18:18.060Z,5.83
2019-05-19T15:23:24.598Z,5.17
2019-05-19T15:28:28.298Z,5.57
2019-05-19T15:33:38.059Z,5.53
2019-05-19T15:38:37.895Z,5.47
2019-05-19T15:43:41.363Z,5.77
2019-05-19T15:48:44.639Z,4.13
2019-05-19T15:53:49.880Z,6.50
2019-05-19T15:58:53.425Z,6.33
2019-05-19T16:03:59.978Z,7.77
2019-05-19T16:09:05.006Z,6.37
2019-05-19T16:14:10.194Z,3.63
2019-05-19T16:19:15.266Z,4.47
2019-05-19T16:24:19.110Z,4.70
2019-05-19T16:29:23.171Z,4.47
2019-05-19T16:34:26.450Z,3.17
2019-05-19T16:39:31.840Z,3.40
2019-05-19T16:44:38.491Z,1.90
2019-05-19T16:49:41.819Z,3.33
2019-05-19T16:54:47.029Z,2.83
2019-05-19T16:59:53.796Z,2.30
2019-05-19T17:05:01.255Z,2.27
2019-05-19T17:10:10.060Z,2.47
2019-05-19T17:15:13.460Z,2.43
2019-05-19T17:20:17.347Z,2.90
2019-05-19T17:25:20.628Z,2.23
2019-05-19T17:30:32.932Z,3.13
2019-05-19T17:35:38.248Z,2.80
2019-05-19T17:40:46.670Z,2.70
2019-05-19T17:45:49.673Z,3.17
2019-05-19T17:50:57.591Z,2.50
2019-05-19T17:56:04.599Z,1.90
2019-05-19T18:01:08.071Z,3.07
2019-05-19T18:06:13.273Z,3.57
2019-05-19T18:11:31.616Z,2.37
2019-05-19T18:16:36.395Z,2.30
2019-05-19T18:21:44.193Z,2.50
2019-05-19T18:26:47.763Z,2.90
2019-05-19T18:31:52.674Z,3.93
2019-05-19T18:36:56.002Z,3.37
2019-05-19T18:42:03.014Z,3.63
2019-05-19T18:47:06.468Z,5.90
2019-05-19T18:52:14.345Z,5.10
2019-05-19T18:57:21.008Z,4.57
2019-05-19T19:02:24.582Z,3.40
2019-05-19T19:07:45.835Z,8.30
2019-05-19T19:12:49.464Z,2.80
2019-05-19T19:17:56.058Z,2.83
2019-05-19T19:22:59.341Z,3.60
2019-05-19T19:28:02.868Z,3.87
2019-05-19T19:33:12.592Z,3.67
2019-05-19T19:38:17.600Z,3.47
2019-05-19T19:43:21.176Z,3.50
2019-05-19T19:48:24.593Z,5.60
2019-05-19T19:53:29.483Z,5.37
2019-05-19T19:58:33.014Z,3.67
2019-05-19T20:03:40.077Z,3.77
2019-05-19T20:08:42.173Z,3.70
2019-05-19T20:13:45.702Z,4.97
2019-05-19T20:18:49.000Z,3.33
2019-05-19T20:23:52.289Z,4.20
2019-05-19T20:28:55.858Z,3.63
2019-05-19T20:33:59.100Z,4.03
2019-05-19T20:39:02.701Z,4.43
2019-05-19T20:44:07.995Z,3.80
2019-05-19T20:49:11.543Z,5.03
2019-05-19T20:54:15.066Z,4.40
2019-05-19T20:59:18.644Z,5.53
2019-05-19T21:04:22.166Z,3.97
2019-05-19T21:09:25.450Z,4.80
2019-05-19T21:14:31.826Z,5.87
2019-05-19T21:19:35.406Z,4.27
2019-05-19T21:24:38.737Z,5.03
2019-05-19T21:29:42.037Z,5.03
2019-05-19T21:34:45.312Z,4.33
2019-05-19T21:39:48.612Z,4.40
2019-05-19T21:44:52.462Z,4.40
2019-05-19T21:49:56.007Z,5.30
2019-05-19T21:54:59.542Z,5.07
2019-05-19T22:00:02.828Z,4.73
2019-05-19T22:05:06.476Z,4.37
2019-05-19T22:10:09.811Z,4.50
2019-05-19T22:15:13.403Z,5.80
2019-05-19T22:20:18.161Z,6.97
2019-05-19T22:25:21.482Z,5.83
2019-05-19T22:30:25.054Z,5.00
2019-05-19T22:35:28.374Z,7.37
2019-05-19T22:40:31.705Z,6.20
2019-05-19T22:45:34.992Z,6.37
2019-05-19T22:50:38.524Z,5.43
2019-05-19T22:55:42.064Z,6.40
2019-05-19T23:00:45.594Z,8.23
2019-05-19T23:05:49.169Z,6.57
2019-05-19T23:10:53.218Z,7.80
2019-05-19T23:15:56.577Z,7.93
2019-05-19T23:20:59.866Z,6.63
2019-05-19T23:26:03.166Z,7.53
2019-05-19T23:31:06.451Z,7.17
2019-05-19T23:36:09.788Z,8.23
2019-05-19T23:41:13.329Z,8.30
2019-05-19T23:46:16.602Z,8.30
2019-05-19T23:51:20.126Z,8.07
2019-05-19T23:56:23.639Z,8.80
